WetterOnline ( https://www.wetteronline.de )

Wetter aktuell Hainburg

Aktuelles Wetter: Offenbach (119m)

6-stündlich | Neueste Meldungen
Ortszeit Temperatur Wetter
Di, 20.08. 14:00 19.5° C wolkig
Di, 20.08. 8:00 13.3° C bedeckt
Di, 20.08. 2:00 15.2° C bewölkt
Mo, 19.08. 20:00 20.4° C wolkig
Mo, 19.08. 14:00 24.3° C wolkenlos
Mo, 19.08. 8:00 15.8° C wolkig
Mo, 19.08. 2:00 17.6° C wolkig
So, 18.08. 20:00 19.8° C leichter Regen
Ortszeit Temperatur Wetter
Di, 20.08. 18:00 19.6° C bedeckt
Di, 20.08. 17:50 19.6° C bedeckt
Di, 20.08. 17:40 19.7° C bedeckt
Di, 20.08. 17:30 19.8° C bedeckt
Di, 20.08. 17:20 19.8° C bedeckt
Di, 20.08. 17:10 19.8° C bewölkt
Di, 20.08. 17:00 19.8° C bewölkt
Di, 20.08. 16:30 19.8° C bedeckt
Di, 20.08. 16:00 19.8° C bewölkt
Di, 20.08. 15:30 19.6° C wolkig
Di, 20.08. 15:00 19.5° C bewölkt
Ortszeit Relative Feuchte Sichtweite
Di, 20.08. 14:00 53% 60 km
Di, 20.08. 8:00 96% 30 km
Di, 20.08. 2:00 81% 50 km
Mo, 19.08. 20:00 59% 60 km
Mo, 19.08. 14:00 41% 55 km
Mo, 19.08. 8:00 99% 19 km
Mo, 19.08. 2:00 96% 45 km
So, 18.08. 20:00 93% 16 km
Ortszeit Relative Feuchte Sichtweite
Di, 20.08. 18:00 61% 50 km
Di, 20.08. 17:50 61% -
Di, 20.08. 17:40 60% -
Di, 20.08. 17:30 58% 50 km
Di, 20.08. 17:20 58% -
Di, 20.08. 17:10 58% -
Di, 20.08. 17:00 59% 45 km
Di, 20.08. 16:30 58% 55 km
Di, 20.08. 16:00 57% 55 km
Di, 20.08. 15:30 58% 45 km
Di, 20.08. 15:00 56% 55 km
Ortszeit Niederschlagsmenge Niederschlagsart
Di, 20.08. 14:00 0.0 l/m2 in 6 Std. -
Di, 20.08. 8:00 0.0 l/m2 in 12 Std. -
Di, 20.08. 2:00 0.0 l/m2 in 6 Std. -
Mo, 19.08. 20:00 0.0 l/m2 in 12 Std. -
Mo, 19.08. 14:00 0.0 l/m2 in 6 Std. -
Mo, 19.08. 8:00 0.4 l/m2 in 12 Std. -
Mo, 19.08. 2:00 0.4 l/m2 in 6 Std. Regen
So, 18.08. 20:00 8 l/m2 in 12 Std. Regenschauer
Ortszeit Niederschlagsmenge Niederschlagsart
Di, 20.08. 18:00 0.0 l/m2 in 1 Std. -
Di, 20.08. 17:50 keine Meldung -
Di, 20.08. 17:40 keine Meldung -
Di, 20.08. 17:30 0.0 l/m2 in 1 Std. -
Di, 20.08. 17:20 keine Meldung -
Di, 20.08. 17:10 keine Meldung -
Di, 20.08. 17:00 0.0 l/m2 in 1 Std. -
Di, 20.08. 16:30 0.0 l/m2 in 1 Std. -
Di, 20.08. 16:00 0.0 l/m2 in 1 Std. -
Di, 20.08. 15:30 0.0 l/m2 in 1 Std. -
Di, 20.08. 15:00 0.0 l/m2 in 1 Std. -
Ortszeit Stärke Spitze Richtung
km/h Bft. km/h Grad Sektor
Di, 20.08. 14:00 4 1 14 30° NO
Di, 20.08. 8:00 4 1 11 120° SO
Di, 20.08. 2:00 2 1 6 190° S
Mo, 19.08. 20:00 0 0 25 - -
Mo, 19.08. 14:00 11 2 25 240° SW
Mo, 19.08. 8:00 2 1 15 140° SO
Mo, 19.08. 2:00 6 1 15 250° W
So, 18.08. 20:00 9 2 57 220° SW
Ortszeit Stärke Spitze Richtung
km/h Bft. km/h Grad Sektor
Di, 20.08. 18:00 4 1 7 110° O
Di, 20.08. 17:50 4 1 - 110° O
Di, 20.08. 17:40 4 1 - 160° S
Di, 20.08. 17:30 4 1 7 170° S
Di, 20.08. 17:20 4 1 - 170° S
Di, 20.08. 17:10 6 1 - 170° S
Di, 20.08. 17:00 6 1 11 180° S
Di, 20.08. 16:30 7 2 11 170° S
Di, 20.08. 16:00 6 1 7 150° SO
Di, 20.08. 15:30 4 1 7 170° S
Di, 20.08. 15:00 4 1 7 200° S
Ortszeit Untergrenze Bedeckung Gattung
total tief tief mittel hoch
Di, 20.08. 14:00 2700 m 8/8 1/8 - - -
Di, 20.08. 8:00 6600 m 8/8 8/8 - - -
Di, 20.08. 2:00 2100 m 7/8 7/8 - - -
Mo, 19.08. 20:00 9000 m 7/8 0/8 - - -
Mo, 19.08. 14:00 - 0/8 0/8 - - -
Mo, 19.08. 8:00 1350 m 6/8 6/8 - - -
Mo, 19.08. 2:00 1050 m 8/8 3/8 - - -
So, 18.08. 20:00 3000 m 8/8 8/8 - - -
Ortszeit Bedeckungsgrad in Achtel und Wolkenuntergrenze
Di, 20.08. 18:00 8(4200m)
Di, 20.08. 17:50 8(4200m)
Di, 20.08. 17:40 8(4200m)
Di, 20.08. 17:30 2(3000m) 8(4200m) 8(4800m)
Di, 20.08. 17:20 2(3000m) 8(4200m) 8(4800m)
Di, 20.08. 17:10 5(2700m) 8(4500m)
Di, 20.08. 17:00 7(2700m) 7(3300m) 8(4500m)
Di, 20.08. 16:30 4(3000m) 8(4200m) 8(4200m)
Di, 20.08. 16:00 7(2700m) 8(4200m)
Di, 20.08. 15:30 1(2700m) 8(3900m)
Di, 20.08. 15:00 4(2400m) 8(3900m)
Ortszeit Luftdruck NN (hPa) Tendenz (hPa in 3 Std.)
Di, 20.08. 14:00 1023 + 0,3
Di, 20.08. 8:00 1022 + 0,9
Di, 20.08. 2:00 1021 + 1,4
Mo, 19.08. 20:00 1018 + 0,5
Mo, 19.08. 14:00 1017 + 0,4
Mo, 19.08. 8:00 1016 + 0,8
Mo, 19.08. 2:00 1013 + 1,4
So, 18.08. 20:00 1010 + 2,2
Ortszeit Luftdruck NN (hPa) Tendenz (hPa in 3 Std.)
Di, 20.08. 18:00 1024 + 0,7
Di, 20.08. 17:50 1024 keine Meldung
Di, 20.08. 17:40 1024 keine Meldung
Di, 20.08. 17:30 1024 + 0,8
Di, 20.08. 17:20 1024 keine Meldung
Di, 20.08. 17:10 1024 keine Meldung
Di, 20.08. 17:00 1024 + 0,7
Di, 20.08. 16:30 1023 + 0,2
Di, 20.08. 16:00 1023 0,0
Di, 20.08. 15:30 1023 - 0,3
Di, 20.08. 15:00 1023 - 0,2
Ortszeit Schneehöhe (cm)
Di, 20.08. 14:00 -
Di, 20.08. 8:00 -
Di, 20.08. 2:00 -
Mo, 19.08. 20:00 -
Mo, 19.08. 14:00 -
Mo, 19.08. 8:00 -
Mo, 19.08. 2:00 -
So, 18.08. 20:00 -
Ortszeit Schneehöhe (cm)
Di, 20.08. 18:00 -
Di, 20.08. 17:50 -
Di, 20.08. 17:40 -
Di, 20.08. 17:30 -
Di, 20.08. 17:20 -
Di, 20.08. 17:10 -
Di, 20.08. 17:00 -
Di, 20.08. 16:30 -
Di, 20.08. 16:00 -
Di, 20.08. 15:30 -
Di, 20.08. 15:00 -
Link zu dieser Seite / Seite empfehlen

Das Wetter in ...